createdAt,value
2023-05-21T00:00:40.169Z,9.53
2023-05-21T00:01:40.155Z,8.60
2023-05-21T00:02:40.298Z,9.77
2023-05-21T00:03:40.277Z,9.38
2023-05-21T00:04:40.249Z,9.69
2023-05-21T00:05:40.347Z,9.46
2023-05-21T00:06:40.346Z,9.38
2023-05-21T00:07:40.384Z,9.19
2023-05-21T00:08:40.424Z,10.05
2023-05-21T00:09:40.444Z,9.65
2023-05-21T00:10:40.497Z,9.99
2023-05-21T00:11:40.529Z,9.40
2023-05-21T00:12:40.544Z,10.16
2023-05-21T00:13:40.600Z,10.36
2023-05-21T00:14:40.602Z,10.45
2023-05-21T00:15:40.634Z,9.37
2023-05-21T00:16:40.672Z,10.00
2023-05-21T00:17:40.701Z,9.63
2023-05-21T00:18:40.663Z,10.26
2023-05-21T00:19:40.745Z,11.14
2023-05-21T00:20:40.662Z,9.84
2023-05-21T00:21:40.638Z,10.15
2023-05-21T00:22:40.634Z,10.22
2023-05-21T00:23:40.649Z,10.54
2023-05-21T00:24:40.649Z,10.81
2023-05-21T00:25:40.650Z,10.66
2023-05-21T00:26:40.657Z,11.10
2023-05-21T00:27:40.637Z,10.36
2023-05-21T00:28:40.653Z,10.07
2023-05-21T00:29:42.316Z,9.59
2023-05-21T00:30:40.673Z,9.28
2023-05-21T00:31:40.666Z,9.62
2023-05-21T00:32:40.666Z,10.80
2023-05-21T00:33:40.665Z,9.95
2023-05-21T00:34:40.671Z,10.27
2023-05-21T00:35:40.668Z,10.78
2023-05-21T00:36:40.633Z,10.88
2023-05-21T00:37:40.606Z,10.55
2023-05-21T00:38:40.602Z,10.53
2023-05-21T00:39:40.583Z,10.02
2023-05-21T00:40:40.593Z,9.96
2023-05-21T00:41:41.375Z,10.31
2023-05-21T00:42:40.582Z,10.17
2023-05-21T00:43:40.583Z,9.96
2023-05-21T00:44:40.574Z,9.62
2023-05-21T00:45:40.561Z,9.37
2023-05-21T00:46:40.554Z,9.40
2023-05-21T00:47:40.555Z,9.54
2023-05-21T00:48:40.552Z,10.12
2023-05-21T00:49:40.542Z,10.10
2023-05-21T00:50:40.521Z,9.19
2023-05-21T00:51:40.523Z,9.79
2023-05-21T00:52:40.496Z,9.97
2023-05-21T00:53:40.503Z,9.85
2023-05-21T00:54:40.502Z,9.82
2023-05-21T00:55:40.516Z,9.79
2023-05-21T00:56:40.511Z,9.55
2023-05-21T00:57:40.493Z,9.61
2023-05-21T00:58:40.474Z,9.89
2023-05-21T00:59:40.435Z,9.31
2023-05-21T01:00:40.485Z,9.35
2023-05-21T01:01:40.482Z,9.98
2023-05-21T01:02:40.563Z,9.54
2023-05-21T01:03:40.482Z,10.77
2023-05-21T01:04:40.453Z,10.19
2023-05-21T01:05:40.426Z,10.21
2023-05-21T01:06:40.444Z,10.80
2023-05-21T01:07:40.439Z,11.07
2023-05-21T01:08:40.398Z,11.88
2023-05-21T01:09:40.410Z,11.53
2023-05-21T01:10:40.404Z,10.06
2023-05-21T01:11:40.396Z,10.01
2023-05-21T01:12:40.376Z,9.93
2023-05-21T01:13:40.364Z,10.55
2023-05-21T01:14:40.400Z,9.97
2023-05-21T01:15:40.388Z,9.52
2023-05-21T01:16:40.449Z,9.68
2023-05-21T01:17:40.406Z,9.90
2023-05-21T01:18:40.420Z,10.85
2023-05-21T01:19:40.393Z,9.63
2023-05-21T01:20:40.342Z,10.26
2023-05-21T01:21:40.348Z,9.95
2023-05-21T01:22:40.308Z,9.94
2023-05-21T01:23:40.295Z,11.31
2023-05-21T01:24:40.287Z,10.68
2023-05-21T01:25:40.317Z,9.60
2023-05-21T01:26:40.283Z,9.35
2023-05-21T01:27:40.267Z,10.67
2023-05-21T01:28:40.303Z,10.42
2023-05-21T01:29:40.276Z,9.30
2023-05-21T01:30:40.305Z,10.09
2023-05-21T01:31:40.253Z,9.84
2023-05-21T01:32:40.291Z,10.31
2023-05-21T01:33:40.296Z,9.17
2023-05-21T01:34:40.220Z,9.85
2023-05-21T01:35:40.266Z,9.92
2023-05-21T01:36:40.229Z,9.64
2023-05-21T01:37:40.243Z,10.84
2023-05-21T01:38:40.294Z,10.35
2023-05-21T01:39:40.227Z,9.93
2023-05-21T01:40:40.206Z,9.70
2023-05-21T01:41:40.190Z,9.49
2023-05-21T01:42:41.930Z,10.04
2023-05-21T01:43:40.196Z,9.70
2023-05-21T01:44:40.186Z,9.00
2023-05-21T01:45:40.188Z,9.59
2023-05-21T01:46:40.190Z,10.39
2023-05-21T01:47:40.197Z,10.99
2023-05-21T01:48:40.150Z,9.92
2023-05-21T01:49:40.124Z,10.59
2023-05-21T01:50:40.135Z,10.01
2023-05-21T01:51:40.136Z,10.07
2023-05-21T01:52:40.110Z,9.61
2023-05-21T01:53:40.106Z,9.45
2023-05-21T01:54:40.139Z,10.32
2023-05-21T01:55:40.169Z,9.72
2023-05-21T01:56:40.110Z,8.85
2023-05-21T01:57:40.110Z,11.10
2023-05-21T01:58:40.096Z,10.66
2023-05-21T01:59:40.088Z,8.74
2023-05-21T02:00:40.128Z,9.59
2023-05-21T02:01:40.119Z,9.23
2023-05-21T02:02:40.142Z,9.85
2023-05-21T02:03:40.108Z,10.03
2023-05-21T02:04:40.043Z,9.98
2023-05-21T02:05:40.064Z,9.11
2023-05-21T02:06:40.055Z,10.56
2023-05-21T02:07:40.057Z,10.54
2023-05-21T02:08:40.090Z,9.76
2023-05-21T02:09:40.105Z,10.33
2023-05-21T02:10:40.133Z,10.51
2023-05-21T02:11:40.154Z,9.92
2023-05-21T02:12:40.173Z,11.08
2023-05-21T02:13:40.201Z,9.76
2023-05-21T02:14:40.202Z,10.02
2023-05-21T02:15:40.238Z,10.20
2023-05-21T02:16:40.377Z,11.02
2023-05-21T02:17:40.298Z,9.91
2023-05-21T02:18:40.263Z,9.87
2023-05-21T02:19:40.310Z,10.30
2023-05-21T02:20:40.352Z,10.07
2023-05-21T02:21:40.335Z,10.50
2023-05-21T02:22:40.399Z,10.46
2023-05-21T02:23:40.435Z,10.56
2023-05-21T02:24:40.464Z,9.72
2023-05-21T02:25:40.506Z,9.27
2023-05-21T02:26:40.519Z,9.40
2023-05-21T02:27:40.582Z,9.22
2023-05-21T02:28:40.588Z,9.67
2023-05-21T02:29:40.633Z,10.10
2023-05-21T02:30:40.687Z,10.30
2023-05-21T02:31:40.746Z,9.60
2023-05-21T02:32:40.825Z,9.04
2023-05-21T02:33:40.854Z,9.62
2023-05-21T02:34:40.833Z,10.09
2023-05-21T02:35:40.942Z,9.84
2023-05-21T02:36:40.940Z,10.59
2023-05-21T02:37:41.008Z,10.13
2023-05-21T02:38:41.051Z,10.89
2023-05-21T02:39:41.106Z,11.31
2023-05-21T02:40:41.125Z,11.05
2023-05-21T02:41:41.180Z,10.16
2023-05-21T02:42:41.239Z,10.28
2023-05-21T02:43:41.936Z,10.98
2023-05-21T02:44:41.308Z,11.84
2023-05-21T02:45:41.391Z,10.73
2023-05-21T02:46:41.417Z,11.40
2023-05-21T02:47:41.553Z,11.18
2023-05-21T02:48:41.479Z,10.13
2023-05-21T02:49:41.556Z,10.29
2023-05-21T02:50:41.585Z,10.48
2023-05-21T02:51:41.657Z,10.55
2023-05-21T02:52:41.693Z,11.01
2023-05-21T02:53:41.735Z,9.10
2023-05-21T02:54:41.754Z,9.55
2023-05-21T02:55:41.829Z,10.29
2023-05-21T02:56:41.857Z,10.53
2023-05-21T02:57:41.900Z,10.24
2023-05-21T02:58:41.934Z,9.70
2023-05-21T02:59:41.964Z,9.65
2023-05-21T03:00:42.092Z,9.86
2023-05-21T03:01:42.100Z,9.08
2023-05-21T03:02:42.240Z,9.55
2023-05-21T03:03:42.207Z,9.91
2023-05-21T03:04:42.184Z,9.21
2023-05-21T03:05:42.301Z,9.20
2023-05-21T03:06:42.264Z,8.60
2023-05-21T03:07:42.341Z,8.69
2023-05-21T03:08:42.374Z,8.73
2023-05-21T03:09:42.482Z,9.52
2023-05-21T03:10:42.452Z,8.82
2023-05-21T03:11:42.460Z,9.38
2023-05-21T03:12:42.553Z,9.26
2023-05-21T03:13:42.588Z,9.29
2023-05-21T03:14:42.687Z,8.91
2023-05-21T03:15:42.699Z,9.00
2023-05-21T03:16:42.696Z,9.16
2023-05-21T03:17:42.816Z,9.38
2023-05-21T03:18:42.795Z,8.66
2023-05-21T03:19:42.881Z,9.83
2023-05-21T03:20:42.900Z,8.16
2023-05-21T03:21:42.922Z,8.34
2023-05-21T03:22:42.958Z,8.30
2023-05-21T03:23:42.988Z,9.28
2023-05-21T03:24:43.048Z,8.69
2023-05-21T03:25:43.094Z,8.68
2023-05-21T03:26:43.164Z,9.18
2023-05-21T03:27:43.232Z,8.56
2023-05-21T03:28:43.224Z,9.35
2023-05-21T03:29:43.301Z,8.70
2023-05-21T03:30:43.310Z,8.45
2023-05-21T03:31:43.368Z,9.46
2023-05-21T03:32:43.452Z,8.66
2023-05-21T03:33:43.471Z,8.56
2023-05-21T03:34:43.502Z,8.79
2023-05-21T03:35:43.575Z,8.57
2023-05-21T03:36:43.656Z,8.87
2023-05-21T03:37:43.651Z,8.75
2023-05-21T03:38:43.704Z,8.25
2023-05-21T03:39:43.749Z,9.52
2023-05-21T03:40:43.791Z,8.45
2023-05-21T03:41:43.855Z,8.02
2023-05-21T03:42:43.888Z,8.33
2023-05-21T03:43:43.946Z,7.98
2023-05-21T03:44:43.996Z,9.14
2023-05-21T03:45:44.657Z,7.49
2023-05-21T03:46:44.118Z,8.70
2023-05-21T03:47:44.229Z,8.88
2023-05-21T03:48:44.230Z,8.94
2023-05-21T03:49:44.287Z,8.97
2023-05-21T03:50:44.334Z,8.25
2023-05-21T03:51:44.406Z,8.84
2023-05-21T03:52:44.449Z,8.98
2023-05-21T03:53:44.502Z,8.42
2023-05-21T03:54:44.542Z,7.91
2023-05-21T03:55:44.621Z,8.38
2023-05-21T03:56:44.636Z,8.71
2023-05-21T03:57:44.705Z,9.22
2023-05-21T03:58:44.761Z,8.79
2023-05-21T03:59:44.837Z,8.67
2023-05-21T04:00:44.922Z,9.17
2023-05-21T04:01:44.930Z,7.89
2023-05-21T04:02:45.056Z,8.38
2023-05-21T04:03:45.203Z,8.42
2023-05-21T04:04:45.086Z,8.53
2023-05-21T04:05:45.199Z,8.03
2023-05-21T04:06:45.262Z,8.93
2023-05-21T04:07:45.270Z,9.78
2023-05-21T04:08:45.325Z,8.65
2023-05-21T04:09:45.386Z,8.54
2023-05-21T04:10:45.452Z,8.91
2023-05-21T04:11:45.514Z,9.94
2023-05-21T04:12:45.541Z,8.58
2023-05-21T04:13:45.631Z,8.96
2023-05-21T04:14:45.683Z,8.71
2023-05-21T04:15:45.774Z,9.26
2023-05-21T04:16:45.808Z,8.78
2023-05-21T04:17:45.887Z,9.21
2023-05-21T04:18:45.935Z,9.22
2023-05-21T04:19:46.004Z,8.79
2023-05-21T04:20:46.057Z,10.20
2023-05-21T04:21:46.154Z,9.48
2023-05-21T04:22:46.188Z,10.08
2023-05-21T04:23:46.343Z,9.21
2023-05-21T04:24:46.274Z,9.55
2023-05-21T04:25:46.375Z,10.46
2023-05-21T04:26:46.421Z,11.14
2023-05-21T04:27:46.446Z,9.93
2023-05-21T04:28:46.545Z,9.87
2023-05-21T04:29:47.321Z,10.21
2023-05-21T04:30:46.651Z,10.26
2023-05-21T04:31:46.822Z,9.75
2023-05-21T04:32:46.885Z,8.77
2023-05-21T04:33:46.837Z,9.90
2023-05-21T04:34:46.943Z,10.24
2023-05-21T04:35:46.947Z,9.48
2023-05-21T04:36:47.066Z,9.77
2023-05-21T04:37:47.080Z,9.85
2023-05-21T04:38:47.115Z,9.25
2023-05-21T04:39:47.190Z,9.09
2023-05-21T04:40:47.269Z,9.82
2023-05-21T04:41:47.402Z,9.33
2023-05-21T04:42:47.354Z,10.90
2023-05-21T04:43:47.415Z,9.20
2023-05-21T04:44:47.465Z,9.56
2023-05-21T04:45:47.529Z,9.28
2023-05-21T04:46:47.622Z,9.47
2023-05-21T04:47:47.732Z,8.97
2023-05-21T04:48:47.726Z,10.65
2023-05-21T04:49:47.776Z,9.74
2023-05-21T04:50:47.820Z,9.64
2023-05-21T04:51:47.878Z,10.33
2023-05-21T04:52:47.950Z,9.88
2023-05-21T04:53:48.023Z,9.30
2023-05-21T04:54:48.056Z,9.78
2023-05-21T04:55:48.156Z,10.17
2023-05-21T04:56:48.189Z,9.95
2023-05-21T04:57:48.243Z,9.44
2023-05-21T04:58:48.285Z,9.70
2023-05-21T04:59:48.342Z,9.37
2023-05-21T05:00:48.465Z,9.78
2023-05-21T05:01:48.467Z,10.01
2023-05-21T05:02:48.611Z,9.86
2023-05-21T05:03:48.705Z,9.49
2023-05-21T05:04:48.673Z,9.84
2023-05-21T05:05:48.744Z,10.02
2023-05-21T05:06:48.800Z,9.90
2023-05-21T05:07:48.877Z,9.06
2023-05-21T05:08:48.907Z,10.52
2023-05-21T05:09:48.972Z,10.24
2023-05-21T05:10:49.060Z,9.67
2023-05-21T05:11:49.098Z,9.92
2023-05-21T05:12:49.207Z,9.31
2023-05-21T05:13:49.256Z,9.93
2023-05-21T05:14:49.275Z,9.22
2023-05-21T05:15:50.603Z,10.20
2023-05-21T05:16:49.416Z,9.77
2023-05-21T05:17:49.514Z,9.42
2023-05-21T05:18:49.558Z,9.12
2023-05-21T05:19:49.546Z,9.96
2023-05-21T05:20:49.613Z,9.37
2023-05-21T05:21:49.650Z,9.48
2023-05-21T05:22:49.737Z,8.96
2023-05-21T05:23:49.738Z,9.45
2023-05-21T05:24:49.849Z,8.82
2023-05-21T05:25:49.853Z,10.56
2023-05-21T05:26:49.911Z,10.74
2023-05-21T05:27:50.004Z,8.82
2023-05-21T05:28:50.030Z,9.30
2023-05-21T05:29:50.070Z,10.42
2023-05-21T05:30:50.125Z,10.27
2023-05-21T05:31:50.176Z,8.79
2023-05-21T05:32:50.279Z,10.61
2023-05-21T05:33:50.277Z,9.94
2023-05-21T05:34:50.322Z,10.31
2023-05-21T05:35:50.375Z,10.69
2023-05-21T05:36:50.441Z,9.54
2023-05-21T05:37:50.483Z,9.54
2023-05-21T05:38:50.529Z,9.76
2023-05-21T05:39:50.608Z,10.04
2023-05-21T05:40:50.624Z,9.04
2023-05-21T05:41:50.703Z,10.18
2023-05-21T05:42:50.737Z,9.43
2023-05-21T05:43:50.806Z,9.77
2023-05-21T05:44:50.801Z,9.71
2023-05-21T05:45:50.930Z,10.33
2023-05-21T05:46:50.959Z,10.18
2023-05-21T05:47:51.041Z,9.12
2023-05-21T05:48:51.050Z,9.68
2023-05-21T05:49:51.075Z,9.08
2023-05-21T05:50:51.168Z,9.30
2023-05-21T05:51:51.219Z,8.90
2023-05-21T05:52:51.284Z,8.95
2023-05-21T05:53:51.315Z,9.05
2023-05-21T05:54:51.353Z,8.69
2023-05-21T05:55:51.412Z,9.54
2023-05-21T05:56:53.048Z,9.54
2023-05-21T05:57:51.545Z,8.76
2023-05-21T05:58:51.561Z,8.84
2023-05-21T05:59:51.631Z,8.95
2023-05-21T06:00:51.663Z,9.62
2023-05-21T06:01:51.708Z,8.99
2023-05-21T06:02:51.856Z,10.10
2023-05-21T06:03:51.887Z,8.87
2023-05-21T06:04:51.857Z,8.76
2023-05-21T06:05:51.916Z,8.90
2023-05-21T06:06:51.949Z,9.17
2023-05-21T06:07:52.018Z,8.55
2023-05-21T06:08:52.055Z,8.61
2023-05-21T06:09:52.127Z,8.82
2023-05-21T06:10:52.130Z,8.54
2023-05-21T06:11:52.195Z,9.01
2023-05-21T06:12:52.221Z,9.78
2023-05-21T06:13:52.276Z,7.95
2023-05-21T06:14:52.336Z,8.14
2023-05-21T06:15:52.374Z,8.79
2023-05-21T06:16:52.374Z,8.75
2023-05-21T06:17:52.470Z,8.89
2023-05-21T06:18:52.499Z,9.34
2023-05-21T06:19:52.501Z,8.50
2023-05-21T06:20:52.549Z,7.93
2023-05-21T06:21:52.579Z,9.18
2023-05-21T06:22:52.649Z,8.20
2023-05-21T06:23:52.671Z,8.56
2023-05-21T06:24:52.728Z,9.00
2023-05-21T06:25:52.764Z,8.41
2023-05-21T06:26:52.837Z,9.00
2023-05-21T06:27:52.820Z,8.35
2023-05-21T06:28:52.834Z,9.00
2023-05-21T06:29:52.870Z,8.90
2023-05-21T06:30:52.920Z,8.61
2023-05-21T06:31:52.956Z,8.25
2023-05-21T06:32:53.096Z,8.60
2023-05-21T06:33:53.150Z,8.56
2023-05-21T06:34:53.016Z,8.63
2023-05-21T06:35:53.053Z,8.39
2023-05-21T06:36:53.098Z,8.65
2023-05-21T06:37:53.128Z,9.14
2023-05-21T06:38:53.138Z,7.96
2023-05-21T06:39:53.197Z,8.73
2023-05-21T06:40:53.188Z,7.91
2023-05-21T06:41:53.247Z,8.13
2023-05-21T06:42:53.367Z,8.58
2023-05-21T06:43:53.314Z,8.49
2023-05-21T06:44:53.313Z,9.82
2023-05-21T06:45:53.380Z,8.47
2023-05-21T06:46:53.402Z,8.69
2023-05-21T06:47:53.440Z,8.06
2023-05-21T06:48:53.480Z,8.71
2023-05-21T06:49:53.496Z,8.45
2023-05-21T06:50:53.521Z,7.95
2023-05-21T06:51:53.570Z,7.92
2023-05-21T06:52:53.579Z,8.62
2023-05-21T06:53:53.642Z,8.06
2023-05-21T06:54:53.671Z,8.96
2023-05-21T06:55:53.859Z,8.08
2023-05-21T06:56:53.704Z,8.45
2023-05-21T06:57:53.732Z,8.35
2023-05-21T06:58:53.785Z,7.40
2023-05-21T06:59:53.806Z,7.34
2023-05-21T07:00:53.885Z,8.34
2023-05-21T07:01:53.920Z,7.60
2023-05-21T07:02:53.961Z,7.68
2023-05-21T07:03:53.924Z,8.67
2023-05-21T07:04:53.956Z,7.51
2023-05-21T07:05:53.964Z,7.45
2023-05-21T07:06:54.004Z,8.93
2023-05-21T07:07:53.990Z,7.82
2023-05-21T07:08:54.036Z,7.71
2023-05-21T07:09:54.061Z,8.28
2023-05-21T07:10:54.123Z,8.11
2023-05-21T07:11:54.085Z,7.94
2023-05-21T07:12:54.097Z,7.75
2023-05-21T07:13:54.171Z,8.13
2023-05-21T07:14:54.175Z,7.85
2023-05-21T07:15:54.192Z,7.46
2023-05-21T07:16:54.216Z,8.63
2023-05-21T07:17:54.303Z,8.19
2023-05-21T07:18:54.256Z,8.14
2023-05-21T07:19:54.224Z,7.23
2023-05-21T07:20:54.258Z,8.10
2023-05-21T07:21:54.328Z,7.91
2023-05-21T07:22:54.295Z,7.82
2023-05-21T07:23:54.301Z,8.08
2023-05-21T07:24:54.320Z,7.95
2023-05-21T07:25:54.303Z,7.29
2023-05-21T07:26:54.324Z,7.53
2023-05-21T07:27:54.315Z,7.53
2023-05-21T07:28:54.335Z,7.69
2023-05-21T07:29:54.346Z,8.48
2023-05-21T07:30:54.393Z,7.19
2023-05-21T07:31:54.324Z,8.70
2023-05-21T07:32:54.375Z,7.94
2023-05-21T07:33:54.330Z,6.68
2023-05-21T07:34:54.613Z,7.40
2023-05-21T07:35:54.340Z,6.87
2023-05-21T07:36:54.334Z,6.96
2023-05-21T07:37:54.419Z,7.96
2023-05-21T07:38:54.363Z,7.92
2023-05-21T07:39:54.305Z,7.34
2023-05-21T07:40:54.346Z,7.60
2023-05-21T07:41:54.411Z,7.78
2023-05-21T07:42:54.412Z,7.13
2023-05-21T07:43:54.441Z,7.60
2023-05-21T07:44:54.496Z,7.59
2023-05-21T07:45:54.550Z,6.94
2023-05-21T07:46:54.555Z,7.65
2023-05-21T07:47:54.602Z,7.42
2023-05-21T07:48:54.627Z,7.48
2023-05-21T07:49:54.702Z,7.59
2023-05-21T07:50:54.782Z,7.82
2023-05-21T07:51:54.832Z,7.72
2023-05-21T07:52:54.965Z,7.28
2023-05-21T07:53:55.456Z,6.78
2023-05-21T07:54:55.026Z,7.20
2023-05-21T07:55:55.545Z,7.00
2023-05-21T07:56:55.154Z,7.43
2023-05-21T07:57:55.169Z,7.71
2023-05-21T07:58:55.245Z,7.12
2023-05-21T07:59:55.330Z,7.47
2023-05-21T08:00:55.356Z,7.20
2023-05-21T08:01:55.381Z,7.79
2023-05-21T08:02:55.511Z,8.11
2023-05-21T08:03:55.608Z,6.72
2023-05-21T08:04:55.578Z,6.53
2023-05-21T08:05:55.608Z,7.35
2023-05-21T08:06:55.661Z,6.82
2023-05-21T08:07:55.670Z,6.45
2023-05-21T08:08:55.727Z,7.35
2023-05-21T08:09:55.798Z,7.17
2023-05-21T08:10:55.831Z,7.35
2023-05-21T08:11:55.840Z,6.89
2023-05-21T08:12:55.910Z,7.27
2023-05-21T08:13:55.948Z,7.49
2023-05-21T08:14:56.000Z,6.84
2023-05-21T08:15:56.066Z,6.99
2023-05-21T08:16:56.066Z,7.97
2023-05-21T08:17:56.104Z,6.69
2023-05-21T08:18:56.150Z,6.56
2023-05-21T08:19:56.179Z,7.33
2023-05-21T08:20:56.179Z,7.20
2023-05-21T08:21:56.238Z,7.23
2023-05-21T08:22:56.223Z,7.37
2023-05-21T08:23:56.259Z,7.71
2023-05-21T08:24:56.304Z,7.22
2023-05-21T08:25:56.322Z,7.20
2023-05-21T08:26:56.325Z,7.61
2023-05-21T08:27:56.375Z,6.43
2023-05-21T08:28:56.394Z,7.37
2023-05-21T08:29:56.446Z,6.42
2023-05-21T08:30:56.453Z,6.56
2023-05-21T08:31:56.509Z,6.89
2023-05-21T08:32:56.545Z,7.33
2023-05-21T08:33:56.533Z,6.43
2023-05-21T08:34:56.553Z,6.92
2023-05-21T08:35:56.605Z,7.28
2023-05-21T08:36:56.591Z,6.90
2023-05-21T08:37:56.617Z,6.61
2023-05-21T08:38:56.595Z,6.83
2023-05-21T08:39:56.642Z,6.88
2023-05-21T08:40:56.684Z,7.58
2023-05-21T08:41:56.666Z,6.71
2023-05-21T08:42:56.676Z,6.84
2023-05-21T08:43:56.724Z,6.42
2023-05-21T08:44:56.747Z,6.95
2023-05-21T08:45:56.759Z,7.41
2023-05-21T08:46:56.765Z,7.29
2023-05-21T08:47:56.870Z,7.37
2023-05-21T08:48:56.788Z,6.84
2023-05-21T08:49:56.814Z,7.04
2023-05-21T08:50:56.806Z,7.00
2023-05-21T08:51:56.828Z,6.59
2023-05-21T08:52:56.819Z,7.32
2023-05-21T08:53:56.850Z,7.26
2023-05-21T08:54:56.897Z,7.15
2023-05-21T08:55:56.893Z,7.38
2023-05-21T08:56:56.907Z,6.92
2023-05-21T08:57:56.877Z,6.79
2023-05-21T08:58:56.869Z,6.38
2023-05-21T08:59:56.934Z,7.13
2023-05-21T09:00:56.907Z,6.96
2023-05-21T09:01:57.032Z,7.11
2023-05-21T09:02:56.968Z,6.42
2023-05-21T09:04:04.953Z,7.33
2023-05-21T09:04:57.930Z,7.39
2023-05-21T09:05:56.913Z,6.76
2023-05-21T09:06:56.891Z,7.40
2023-05-21T09:07:56.879Z,6.89
2023-05-21T09:08:56.858Z,6.59
2023-05-21T09:09:56.856Z,8.19
2023-05-21T09:10:56.883Z,7.07
2023-05-21T09:11:56.843Z,6.46
2023-05-21T09:12:56.867Z,7.50
2023-05-21T09:13:56.831Z,7.82
2023-05-21T09:14:56.812Z,7.08
2023-05-21T09:15:56.847Z,7.15
2023-05-21T09:16:56.933Z,7.57
2023-05-21T09:17:56.928Z,7.03
2023-05-21T09:18:56.841Z,7.45
2023-05-21T09:19:56.813Z,6.83
2023-05-21T09:20:56.785Z,7.38
2023-05-21T09:21:56.796Z,6.77
2023-05-21T09:22:56.789Z,7.81
2023-05-21T09:23:56.780Z,7.58
2023-05-21T09:24:56.756Z,8.03
2023-05-21T09:25:56.810Z,8.33
2023-05-21T09:26:56.772Z,8.47
2023-05-21T09:27:56.730Z,7.57
2023-05-21T09:28:56.738Z,7.45
2023-05-21T09:29:56.716Z,8.00
2023-05-21T09:30:56.814Z,7.70
2023-05-21T09:31:56.749Z,7.50
2023-05-21T09:32:56.763Z,8.44
2023-05-21T09:33:56.721Z,8.08
2023-05-21T09:34:56.716Z,8.10
2023-05-21T09:35:56.721Z,7.87
2023-05-21T09:36:56.707Z,8.52
2023-05-21T09:37:56.716Z,8.63
2023-05-21T09:38:56.664Z,7.80
2023-05-21T09:39:56.666Z,7.75
2023-05-21T09:40:56.762Z,7.59
2023-05-21T09:41:56.740Z,9.04
2023-05-21T09:42:56.803Z,8.65
2023-05-21T09:43:56.867Z,8.49
2023-05-21T09:44:56.955Z,8.62
2023-05-21T09:45:58.979Z,8.18
2023-05-21T09:46:57.105Z,8.31
2023-05-21T09:47:57.006Z,9.32
2023-05-21T09:48:56.962Z,9.00
2023-05-21T09:49:56.984Z,8.14
2023-05-21T09:50:56.956Z,9.41
2023-05-21T09:51:56.961Z,8.98
2023-05-21T09:52:56.928Z,8.80
2023-05-21T09:53:56.941Z,8.95
2023-05-21T09:54:56.929Z,8.40
2023-05-21T09:55:56.933Z,8.19
2023-05-21T09:56:56.953Z,8.44
2023-05-21T09:57:56.938Z,8.39
2023-05-21T09:58:56.904Z,8.69
2023-05-21T09:59:56.907Z,9.15
2023-05-21T10:00:56.898Z,8.96
2023-05-21T10:01:56.938Z,9.47
2023-05-21T10:02:56.938Z,8.40
2023-05-21T10:03:56.941Z,8.66
2023-05-21T10:04:56.884Z,8.35
2023-05-21T10:05:56.878Z,8.79
2023-05-21T10:06:56.879Z,8.72
2023-05-21T10:07:56.851Z,9.01
2023-05-21T10:08:56.852Z,8.89
2023-05-21T10:09:56.841Z,9.47
2023-05-21T10:10:56.881Z,8.89
2023-05-21T10:11:56.924Z,8.67
2023-05-21T10:12:56.976Z,7.53
2023-05-21T10:13:56.978Z,8.79
2023-05-21T10:14:57.044Z,9.00
2023-05-21T10:15:57.113Z,8.79
2023-05-21T10:16:57.123Z,8.96
2023-05-21T10:17:57.179Z,7.98
2023-05-21T10:18:57.222Z,8.71
2023-05-21T10:19:57.227Z,9.40
2023-05-21T10:20:57.240Z,9.30
2023-05-21T10:21:57.305Z,9.27
2023-05-21T10:22:57.347Z,9.60
2023-05-21T10:23:57.369Z,9.27
2023-05-21T10:24:57.421Z,8.75
2023-05-21T10:25:57.475Z,8.97
2023-05-21T10:26:57.465Z,8.43
2023-05-21T10:27:57.532Z,9.46
2023-05-21T10:28:57.553Z,8.56
2023-05-21T10:29:57.609Z,8.95
2023-05-21T10:30:57.663Z,7.54
2023-05-21T10:31:57.683Z,9.43
2023-05-21T10:32:57.934Z,8.98
2023-05-21T10:33:57.743Z,9.22
2023-05-21T10:34:59.315Z,9.03
2023-05-21T10:35:57.787Z,9.34
2023-05-21T10:36:57.772Z,8.91
2023-05-21T10:37:57.768Z,9.19
2023-05-21T10:38:57.731Z,9.36
2023-05-21T10:39:57.723Z,8.46
2023-05-21T10:40:57.755Z,8.87
2023-05-21T10:41:59.225Z,8.91
2023-05-21T10:42:57.719Z,9.82
2023-05-21T10:43:57.683Z,8.64
2023-05-21T10:44:57.712Z,9.57
2023-05-21T10:45:57.776Z,7.93
2023-05-21T10:46:57.696Z,9.26
2023-05-21T10:47:57.728Z,8.73
2023-05-21T10:48:57.671Z,8.86
2023-05-21T10:49:57.657Z,8.24
2023-05-21T10:50:57.675Z,9.35
2023-05-21T10:51:57.681Z,9.26
2023-05-21T10:52:57.670Z,8.31
2023-05-21T10:53:57.635Z,9.08
2023-05-21T10:54:57.653Z,8.92
2023-05-21T10:55:57.617Z,9.34
2023-05-21T10:56:57.602Z,9.30
2023-05-21T10:57:57.648Z,8.51
2023-05-21T10:58:57.649Z,8.99
2023-05-21T10:59:57.635Z,8.96
2023-05-21T11:00:57.670Z,8.54
2023-05-21T11:01:57.609Z,8.39
2023-05-21T11:02:57.664Z,8.89
2023-05-21T11:03:57.627Z,8.56
2023-05-21T11:04:57.585Z,8.52
2023-05-21T11:05:57.603Z,7.83
2023-05-21T11:06:58.624Z,8.35
2023-05-21T11:07:57.689Z,8.91
2023-05-21T11:08:57.564Z,8.23
2023-05-21T11:09:57.554Z,8.26
2023-05-21T11:10:57.606Z,8.23
2023-05-21T11:11:57.527Z,7.33
2023-05-21T11:12:57.532Z,8.57
2023-05-21T11:13:57.535Z,8.54
2023-05-21T11:14:57.591Z,8.14
2023-05-21T11:15:57.617Z,7.99
2023-05-21T11:16:57.638Z,7.71
2023-05-21T11:17:57.688Z,7.17
2023-05-21T11:18:57.658Z,7.95
2023-05-21T11:19:57.644Z,8.61
2023-05-21T11:20:57.633Z,7.41
2023-05-21T11:21:57.647Z,7.50
2023-05-21T11:22:57.637Z,7.97
2023-05-21T11:23:57.711Z,8.65
2023-05-21T11:24:57.719Z,7.83
2023-05-21T11:25:57.714Z,8.08
2023-05-21T11:26:57.729Z,8.77
2023-05-21T11:27:57.740Z,8.04
2023-05-21T11:28:57.785Z,8.15
2023-05-21T11:29:57.770Z,8.23
2023-05-21T11:30:57.810Z,8.39
2023-05-21T11:31:57.806Z,8.31
2023-05-21T11:32:57.841Z,8.10
2023-05-21T11:33:57.827Z,8.77
2023-05-21T11:34:57.837Z,9.00
2023-05-21T11:35:57.834Z,7.93
2023-05-21T11:36:57.901Z,8.02
2023-05-21T11:37:57.894Z,7.78
2023-05-21T11:38:57.927Z,8.64
2023-05-21T11:39:57.923Z,8.02
2023-05-21T11:40:57.922Z,7.39
2023-05-21T11:41:57.933Z,7.79
2023-05-21T11:42:57.998Z,7.71
2023-05-21T11:43:57.989Z,7.55
2023-05-21T11:44:58.009Z,7.18
2023-05-21T11:45:58.076Z,7.44
2023-05-21T11:46:58.045Z,7.40
2023-05-21T11:47:58.111Z,7.51
2023-05-21T11:48:58.094Z,8.03
2023-05-21T11:49:58.080Z,7.47
2023-05-21T11:50:58.138Z,7.56
2023-05-21T11:51:58.140Z,7.12
2023-05-21T11:52:58.182Z,7.55
2023-05-21T11:53:58.169Z,7.81
2023-05-21T11:54:58.209Z,7.08
2023-05-21T11:55:58.244Z,7.31
2023-05-21T11:56:58.214Z,7.28
2023-05-21T11:57:58.238Z,7.45
2023-05-21T11:58:58.258Z,7.51
2023-05-21T11:59:58.356Z,7.76
2023-05-21T12:00:58.315Z,7.30
2023-05-21T12:01:58.323Z,7.65
2023-05-21T12:02:58.428Z,7.77
2023-05-21T12:03:58.393Z,7.24
2023-05-21T12:04:58.321Z,6.91
2023-05-21T12:05:58.509Z,6.92
2023-05-21T12:06:58.413Z,7.06
2023-05-21T12:07:59.120Z,7.04
2023-05-21T12:08:58.625Z,7.30
2023-05-21T12:09:58.473Z,7.22
2023-05-21T12:10:58.483Z,7.60
2023-05-21T12:11:58.565Z,7.20
2023-05-21T12:12:58.537Z,7.41
2023-05-21T12:13:58.558Z,6.73
2023-05-21T12:14:58.623Z,6.69
2023-05-21T12:15:58.616Z,6.58
2023-05-21T12:16:58.714Z,7.21
2023-05-21T12:17:58.638Z,6.75
2023-05-21T12:18:58.670Z,7.36
2023-05-21T12:19:58.696Z,7.17
2023-05-21T12:20:58.702Z,5.96
2023-05-21T12:21:58.735Z,7.01
2023-05-21T12:22:58.716Z,7.02
2023-05-21T12:23:58.730Z,6.99
2023-05-21T12:24:58.777Z,6.90
2023-05-21T12:25:58.783Z,6.99
2023-05-21T12:26:58.799Z,6.54
2023-05-21T12:27:59.112Z,7.11
2023-05-21T12:28:59.619Z,6.64
2023-05-21T12:29:58.863Z,7.16
2023-05-21T12:30:58.867Z,6.31
2023-05-21T12:31:58.842Z,6.77
2023-05-21T12:32:58.929Z,6.52
2023-05-21T12:33:58.890Z,6.80
2023-05-21T12:34:58.900Z,6.93
2023-05-21T12:35:58.964Z,6.50
2023-05-21T12:36:58.955Z,6.79
2023-05-21T12:37:58.969Z,6.39
2023-05-21T12:38:58.950Z,6.44
2023-05-21T12:39:59.004Z,6.16
2023-05-21T12:40:58.990Z,6.20
2023-05-21T12:41:59.038Z,6.38
2023-05-21T12:42:59.064Z,6.65
2023-05-21T12:43:59.057Z,6.09
2023-05-21T12:44:59.105Z,5.94
2023-05-21T12:45:59.155Z,6.30
2023-05-21T12:46:59.134Z,6.51
2023-05-21T12:47:59.200Z,6.16
2023-05-21T12:48:59.171Z,7.52
2023-05-21T12:49:59.175Z,6.43
2023-05-21T12:50:59.225Z,6.08
2023-05-21T12:51:59.232Z,5.81
2023-05-21T12:52:59.231Z,6.61
2023-05-21T12:53:59.275Z,7.00
2023-05-21T12:54:59.277Z,6.78
2023-05-21T12:55:59.274Z,6.87
2023-05-21T12:56:59.333Z,6.66
2023-05-21T12:57:59.354Z,6.38
2023-05-21T12:58:59.330Z,7.47
2023-05-21T12:59:59.347Z,6.35
2023-05-21T13:00:59.437Z,5.97
2023-05-21T13:01:59.472Z,6.65
2023-05-21T13:02:59.389Z,6.36
2023-05-21T13:03:59.425Z,6.37
2023-05-21T13:04:59.406Z,6.68
2023-05-21T13:05:59.413Z,6.45
2023-05-21T13:06:59.439Z,5.74
2023-05-21T13:07:59.428Z,6.36
2023-05-21T13:08:59.455Z,6.14
2023-05-21T13:09:59.482Z,6.21
2023-05-21T13:10:59.444Z,6.36
2023-05-21T13:11:59.486Z,6.41
2023-05-21T13:12:59.486Z,6.65
2023-05-21T13:13:59.501Z,6.17
2023-05-21T13:14:59.514Z,6.41